sensor_id;sensor_type;location;lat;lon;timestamp;pressure;altitude;pressure_sealevel;temperature;humidity
39739;BME280;25422;48.286;8.484;2022-09-09T00:00:40;93835.38;;;10.90;100.00
39739;BME280;25422;48.286;8.484;2022-09-09T00:03:15;93827.41;;;10.84;100.00
39739;BME280;25422;48.286;8.484;2022-09-09T00:06:07;93833.09;;;10.72;100.00
39739;BME280;25422;48.286;8.484;2022-09-09T00:11:26;93829.38;;;10.52;100.00
39739;BME280;25422;48.286;8.484;2022-09-09T00:13:54;93825.84;;;10.44;100.00
39739;BME280;25422;48.286;8.484;2022-09-09T00:16:28;93826.84;;;10.43;100.00
39739;BME280;25422;48.286;8.484;2022-09-09T00:21:45;93819.91;;;10.51;100.00
39739;BME280;25422;48.286;8.484;2022-09-09T00:24:32;93821.16;;;10.55;100.00
39739;BME280;25422;48.286;8.484;2022-09-09T00:27:15;93818.56;;;10.55;100.00
39739;BME280;25422;48.286;8.484;2022-09-09T00:29:54;93809.44;;;10.51;100.00
39739;BME280;25422;48.286;8.484;2022-09-09T00:32:21;93807.00;;;10.49;100.00
39739;BME280;25422;48.286;8.484;2022-09-09T00:37:32;93812.81;;;10.36;100.00
39739;BME280;25422;48.286;8.484;2022-09-09T00:40:01;93810.97;;;10.22;100.00
39739;BME280;25422;48.286;8.484;2022-09-09T00:42:42;93814.38;;;10.22;100.00
39739;BME280;25422;48.286;8.484;2022-09-09T00:47:45;93812.53;;;10.31;100.00
39739;BME280;25422;48.286;8.484;2022-09-09T00:58:08;93802.19;;;10.15;100.00
39739;BME280;25422;48.286;8.484;2022-09-09T01:00:46;93806.97;;;10.11;100.00
39739;BME280;25422;48.286;8.484;2022-09-09T01:17:32;93823.22;;;9.75;100.00
39739;BME280;25422;48.286;8.484;2022-09-09T01:20:14;93827.94;;;9.79;100.00
39739;BME280;25422;48.286;8.484;2022-09-09T01:26:22;93846.06;;;10.04;100.00
39739;BME280;25422;48.286;8.484;2022-09-09T01:28:50;93844.97;;;9.99;100.00
39739;BME280;25422;48.286;8.484;2022-09-09T01:31:23;93841.34;;;10.00;100.00
39739;BME280;25422;48.286;8.484;2022-09-09T01:33:51;93833.97;;;10.03;100.00
39739;BME280;25422;48.286;8.484;2022-09-09T01:36:26;93842.19;;;10.00;100.00
39739;BME280;25422;48.286;8.484;2022-09-09T01:38:55;93837.56;;;10.02;100.00
39739;BME280;25422;48.286;8.484;2022-09-09T01:41:21;93832.63;;;10.07;100.00
39739;BME280;25422;48.286;8.484;2022-09-09T01:44:00;93816.28;;;10.13;100.00
39739;BME280;25422;48.286;8.484;2022-09-09T01:46:28;93820.84;;;10.11;100.00
39739;BME280;25422;48.286;8.484;2022-09-09T01:48:56;93823.94;;;10.15;100.00
39739;BME280;25422;48.286;8.484;2022-09-09T01:51:23;93833.53;;;10.23;100.00
39739;BME280;25422;48.286;8.484;2022-09-09T01:53:49;93825.81;;;10.21;100.00
39739;BME280;25422;48.286;8.484;2022-09-09T02:04:47;93830.84;;;11.29;100.00
39739;BME280;25422;48.286;8.484;2022-09-09T02:07:38;93826.44;;;11.66;100.00
39739;BME280;25422;48.286;8.484;2022-09-09T02:12:33;93827.72;;;11.92;100.00
39739;BME280;25422;48.286;8.484;2022-09-09T02:15:09;93831.69;;;12.03;100.00
39739;BME280;25422;48.286;8.484;2022-09-09T02:17:46;93836.16;;;12.24;100.00
39739;BME280;25422;48.286;8.484;2022-09-09T02:20:15;93835.44;;;12.37;100.00
39739;BME280;25422;48.286;8.484;2022-09-09T02:22:50;93836.13;;;12.45;100.00
39739;BME280;25422;48.286;8.484;2022-09-09T02:25:19;93836.53;;;12.49;100.00
39739;BME280;25422;48.286;8.484;2022-09-09T02:27:49;93836.75;;;12.47;100.00
39739;BME280;25422;48.286;8.484;2022-09-09T02:30:15;93836.94;;;12.46;100.00
39739;BME280;25422;48.286;8.484;2022-09-09T02:32:50;93831.25;;;12.42;100.00
39739;BME280;25422;48.286;8.484;2022-09-09T02:35:21;93835.88;;;12.40;100.00
39739;BME280;25422;48.286;8.484;2022-09-09T02:37:51;93829.59;;;12.35;100.00
39739;BME280;25422;48.286;8.484;2022-09-09T02:40:18;93832.81;;;12.37;100.00
39739;BME280;25422;48.286;8.484;2022-09-09T02:42:50;93836.22;;;12.30;100.00
39739;BME280;25422;48.286;8.484;2022-09-09T02:45:20;93837.75;;;12.25;100.00
39739;BME280;25422;48.286;8.484;2022-09-09T02:50:35;93829.19;;;11.94;100.00
39739;BME280;25422;48.286;8.484;2022-09-09T02:55:46;93829.53;;;11.70;100.00
39739;BME280;25422;48.286;8.484;2022-09-09T02:58:17;93826.81;;;11.63;100.00
39739;BME280;25422;48.286;8.484;2022-09-09T03:00:50;93832.88;;;11.63;100.00
39739;BME280;25422;48.286;8.484;2022-09-09T03:03:18;93828.81;;;11.61;100.00
39739;BME280;25422;48.286;8.484;2022-09-09T03:05:46;93825.28;;;11.69;100.00
39739;BME280;25422;48.286;8.484;2022-09-09T03:08:12;93825.91;;;11.71;100.00
39739;BME280;25422;48.286;8.484;2022-09-09T03:10:38;93817.47;;;11.75;100.00
39739;BME280;25422;48.286;8.484;2022-09-09T03:13:05;93811.81;;;11.57;100.00
39739;BME280;25422;48.286;8.484;2022-09-09T03:15:34;93804.28;;;11.47;100.00
39739;BME280;25422;48.286;8.484;2022-09-09T03:18:00;93811.53;;;11.30;100.00
39739;BME280;25422;48.286;8.484;2022-09-09T03:20:27;93813.34;;;11.14;100.00
39739;BME280;25422;48.286;8.484;2022-09-09T03:22:54;93817.41;;;11.02;100.00
39739;BME280;25422;48.286;8.484;2022-09-09T03:25:20;93810.53;;;10.86;100.00
39739;BME280;25422;48.286;8.484;2022-09-09T03:27:47;93814.41;;;10.75;100.00
39739;BME280;25422;48.286;8.484;2022-09-09T03:30:12;93816.50;;;10.65;100.00
39739;BME280;25422;48.286;8.484;2022-09-09T03:32:39;93821.81;;;10.57;100.00
39739;BME280;25422;48.286;8.484;2022-09-09T03:35:06;93819.72;;;10.52;100.00
39739;BME280;25422;48.286;8.484;2022-09-09T03:37:32;93829.00;;;10.55;100.00
39739;BME280;25422;48.286;8.484;2022-09-09T03:39:57;93828.31;;;10.61;100.00
39739;BME280;25422;48.286;8.484;2022-09-09T03:42:23;93824.69;;;10.62;100.00
39739;BME280;25422;48.286;8.484;2022-09-09T03:44:51;93832.50;;;10.47;100.00
39739;BME280;25422;48.286;8.484;2022-09-09T03:47:20;93820.78;;;10.43;100.00
39739;BME280;25422;48.286;8.484;2022-09-09T03:49:48;93805.63;;;10.38;100.00
39739;BME280;25422;48.286;8.484;2022-09-09T03:52:14;93814.31;;;10.30;100.00
39739;BME280;25422;48.286;8.484;2022-09-09T03:54:40;93813.59;;;10.22;100.00
39739;BME280;25422;48.286;8.484;2022-09-09T03:57:10;93820.28;;;10.24;100.00
39739;BME280;25422;48.286;8.484;2022-09-09T03:59:36;93813.22;;;10.25;100.00
39739;BME280;25422;48.286;8.484;2022-09-09T04:02:03;93818.94;;;10.28;100.00
39739;BME280;25422;48.286;8.484;2022-09-09T04:04:29;93804.69;;;10.31;100.00
39739;BME280;25422;48.286;8.484;2022-09-09T04:06:55;93810.53;;;10.33;100.00
39739;BME280;25422;48.286;8.484;2022-09-09T04:09:23;93808.75;;;10.34;100.00
39739;BME280;25422;48.286;8.484;2022-09-09T04:11:50;93812.25;;;10.26;100.00
39739;BME280;25422;48.286;8.484;2022-09-09T04:14:15;93804.47;;;10.18;100.00
39739;BME280;25422;48.286;8.484;2022-09-09T04:16:41;93814.63;;;10.12;100.00
39739;BME280;25422;48.286;8.484;2022-09-09T04:19:12;93809.66;;;10.03;100.00
39739;BME280;25422;48.286;8.484;2022-09-09T04:21:40;93810.34;;;9.96;100.00
39739;BME280;25422;48.286;8.484;2022-09-09T04:24:07;93812.22;;;9.88;100.00
39739;BME280;25422;48.286;8.484;2022-09-09T04:26:34;93813.38;;;9.85;100.00
39739;BME280;25422;48.286;8.484;2022-09-09T04:28:59;93803.72;;;9.86;100.00
39739;BME280;25422;48.286;8.484;2022-09-09T04:31:25;93804.66;;;9.93;100.00
39739;BME280;25422;48.286;8.484;2022-09-09T04:33:54;93799.72;;;9.98;100.00
39739;BME280;25422;48.286;8.484;2022-09-09T04:36:20;93815.38;;;9.98;100.00
39739;BME280;25422;48.286;8.484;2022-09-09T04:38:48;93817.09;;;9.91;100.00
39739;BME280;25422;48.286;8.484;2022-09-09T04:41:15;93816.59;;;9.87;100.00
39739;BME280;25422;48.286;8.484;2022-09-09T04:43:43;93823.28;;;9.90;100.00
39739;BME280;25422;48.286;8.484;2022-09-09T04:46:09;93812.09;;;9.81;100.00
39739;BME280;25422;48.286;8.484;2022-09-09T04:48:35;93820.69;;;9.90;100.00
39739;BME280;25422;48.286;8.484;2022-09-09T04:51:04;93826.56;;;9.92;100.00
39739;BME280;25422;48.286;8.484;2022-09-09T04:53:32;93822.66;;;9.88;100.00
39739;BME280;25422;48.286;8.484;2022-09-09T04:56:10;93816.28;;;9.90;100.00
39739;BME280;25422;48.286;8.484;2022-09-09T04:58:41;93821.63;;;9.97;100.00
39739;BME280;25422;48.286;8.484;2022-09-09T05:01:19;93824.50;;;10.02;100.00
39739;BME280;25422;48.286;8.484;2022-09-09T05:03:46;93821.56;;;10.05;100.00
39739;BME280;25422;48.286;8.484;2022-09-09T05:06:17;93821.19;;;10.08;100.00
39739;BME280;25422;48.286;8.484;2022-09-09T05:08:43;93824.91;;;10.14;100.00
39739;BME280;25422;48.286;8.484;2022-09-09T05:11:20;93829.28;;;10.22;100.00
39739;BME280;25422;48.286;8.484;2022-09-09T05:13:48;93830.47;;;10.34;100.00
39739;BME280;25422;48.286;8.484;2022-09-09T05:16:17;93829.00;;;10.55;100.00
39739;BME280;25422;48.286;8.484;2022-09-09T05:18:44;93832.00;;;10.67;100.00
39739;BME280;25422;48.286;8.484;2022-09-09T05:21:11;93822.81;;;10.71;100.00
39739;BME280;25422;48.286;8.484;2022-09-09T05:23:37;93835.72;;;10.72;100.00
39739;BME280;25422;48.286;8.484;2022-09-09T05:26:04;93834.38;;;10.76;100.00
39739;BME280;25422;48.286;8.484;2022-09-09T05:28:29;93836.28;;;10.83;100.00
39739;BME280;25422;48.286;8.484;2022-09-09T05:31:07;93842.78;;;10.87;100.00
39739;BME280;25422;48.286;8.484;2022-09-09T05:33:35;93833.56;;;10.91;100.00
39739;BME280;25422;48.286;8.484;2022-09-09T05:36:03;93839.09;;;10.96;100.00
39739;BME280;25422;48.286;8.484;2022-09-09T05:38:31;93834.09;;;11.01;100.00
39739;BME280;25422;48.286;8.484;2022-09-09T05:40:58;93835.84;;;11.09;100.00
39739;BME280;25422;48.286;8.484;2022-09-09T05:43:25;93836.09;;;11.14;100.00
39739;BME280;25422;48.286;8.484;2022-09-09T05:46:04;93841.16;;;11.16;100.00
39739;BME280;25422;48.286;8.484;2022-09-09T05:48:33;93833.56;;;11.21;100.00
39739;BME280;25422;48.286;8.484;2022-09-09T05:51:00;93838.78;;;11.36;100.00
39739;BME280;25422;48.286;8.484;2022-09-09T05:53:26;93834.63;;;11.41;100.00
39739;BME280;25422;48.286;8.484;2022-09-09T05:56:03;93835.59;;;11.55;100.00
39739;BME280;25422;48.286;8.484;2022-09-09T05:58:35;93837.13;;;11.64;100.00
39739;BME280;25422;48.286;8.484;2022-09-09T06:01:10;93833.84;;;11.77;100.00
39739;BME280;25422;48.286;8.484;2022-09-09T06:03:39;93841.47;;;11.94;100.00
39739;BME280;25422;48.286;8.484;2022-09-09T06:06:08;93849.06;;;12.04;100.00
39739;BME280;25422;48.286;8.484;2022-09-09T06:08:35;93842.69;;;12.13;100.00
39739;BME280;25422;48.286;8.484;2022-09-09T06:11:11;93846.88;;;12.07;100.00
39739;BME280;25422;48.286;8.484;2022-09-09T06:13:37;93850.31;;;12.08;100.00
39739;BME280;25422;48.286;8.484;2022-09-09T06:16:17;93856.47;;;12.00;100.00
39739;BME280;25422;48.286;8.484;2022-09-09T06:18:43;93851.50;;;12.05;100.00
39739;BME280;25422;48.286;8.484;2022-09-09T06:21:18;93854.63;;;12.16;100.00
39739;BME280;25422;48.286;8.484;2022-09-09T06:23:46;93849.81;;;12.19;100.00
39739;BME280;25422;48.286;8.484;2022-09-09T06:28:38;93853.38;;;12.33;100.00
39739;BME280;25422;48.286;8.484;2022-09-09T06:31:07;93855.75;;;12.50;100.00
39739;BME280;25422;48.286;8.484;2022-09-09T06:33:35;93845.34;;;12.63;100.00
39739;BME280;25422;48.286;8.484;2022-09-09T06:36:02;93851.09;;;13.08;100.00
39739;BME280;25422;48.286;8.484;2022-09-09T06:38:29;93851.22;;;13.28;100.00
39739;BME280;25422;48.286;8.484;2022-09-09T06:40:57;93839.84;;;13.56;100.00
39739;BME280;25422;48.286;8.484;2022-09-09T06:43:24;93841.50;;;14.39;100.00
39739;BME280;25422;48.286;8.484;2022-09-09T06:45:55;93853.88;;;14.86;100.00
39739;BME280;25422;48.286;8.484;2022-09-09T06:48:21;93854.84;;;15.18;100.00
39739;BME280;25422;48.286;8.484;2022-09-09T06:50:47;93857.56;;;15.63;100.00
39739;BME280;25422;48.286;8.484;2022-09-09T06:53:16;93859.94;;;16.56;100.00
39739;BME280;25422;48.286;8.484;2022-09-09T06:55:42;93857.53;;;17.67;100.00
39739;BME280;25422;48.286;8.484;2022-09-09T06:58:10;93865.19;;;17.57;100.00
39739;BME280;25422;48.286;8.484;2022-09-09T07:00:36;93863.34;;;16.88;100.00
39739;BME280;25422;48.286;8.484;2022-09-09T07:03:04;93861.16;;;15.82;100.00
39739;BME280;25422;48.286;8.484;2022-09-09T07:05:31;93870.59;;;15.38;100.00
39739;BME280;25422;48.286;8.484;2022-09-09T07:07:56;93862.34;;;14.61;100.00
39739;BME280;25422;48.286;8.484;2022-09-09T07:10:22;93858.88;;;14.33;100.00
39739;BME280;25422;48.286;8.484;2022-09-09T07:12:52;93871.41;;;14.25;100.00
39739;BME280;25422;48.286;8.484;2022-09-09T07:15:19;93874.63;;;14.20;100.00
39739;BME280;25422;48.286;8.484;2022-09-09T07:17:45;93874.97;;;13.97;100.00
39739;BME280;25422;48.286;8.484;2022-09-09T07:20:11;93872.78;;;14.00;100.00
39739;BME280;25422;48.286;8.484;2022-09-09T07:22:37;93874.22;;;14.10;100.00
39739;BME280;25422;48.286;8.484;2022-09-09T07:25:03;93868.66;;;14.93;100.00
39739;BME280;25422;48.286;8.484;2022-09-09T07:27:29;93874.72;;;15.21;100.00
39739;BME280;25422;48.286;8.484;2022-09-09T07:29:55;93871.50;;;14.65;100.00
39739;BME280;25422;48.286;8.484;2022-09-09T07:32:21;93873.31;;;15.11;100.00
39739;BME280;25422;48.286;8.484;2022-09-09T07:34:46;93869.28;;;16.58;100.00
39739;BME280;25422;48.286;8.484;2022-09-09T07:37:12;93858.63;;;16.40;100.00
39739;BME280;25422;48.286;8.484;2022-09-09T07:39:41;93869.94;;;15.63;100.00
39739;BME280;25422;48.286;8.484;2022-09-09T07:42:07;93882.19;;;15.30;100.00
39739;BME280;25422;48.286;8.484;2022-09-09T07:44:35;93875.53;;;14.67;100.00
39739;BME280;25422;48.286;8.484;2022-09-09T07:47:09;93872.31;;;14.72;100.00
39739;BME280;25422;48.286;8.484;2022-09-09T07:49:39;93883.41;;;14.61;100.00
39739;BME280;25422;48.286;8.484;2022-09-09T07:52:06;93880.44;;;14.84;100.00
39739;BME280;25422;48.286;8.484;2022-09-09T07:54:32;93886.50;;;14.91;100.00
39739;BME280;25422;48.286;8.484;2022-09-09T07:56:59;93885.88;;;14.76;100.00
39739;BME280;25422;48.286;8.484;2022-09-09T07:59:27;93893.94;;;14.61;100.00
39739;BME280;25422;48.286;8.484;2022-09-09T08:01:56;93884.84;;;14.70;100.00
39739;BME280;25422;48.286;8.484;2022-09-09T08:04:26;93894.28;;;16.24;100.00
39739;BME280;25422;48.286;8.484;2022-09-09T08:06:59;93893.81;;;16.97;100.00
39739;BME280;25422;48.286;8.484;2022-09-09T08:09:26;93897.53;;;16.90;100.00
39739;BME280;25422;48.286;8.484;2022-09-09T08:11:58;93890.38;;;17.78;100.00
39739;BME280;25422;48.286;8.484;2022-09-09T08:14:24;93895.38;;;17.86;100.00
39739;BME280;25422;48.286;8.484;2022-09-09T08:16:50;93891.63;;;17.57;100.00
39739;BME280;25422;48.286;8.484;2022-09-09T08:19:19;93896.53;;;17.34;100.00
39739;BME280;25422;48.286;8.484;2022-09-09T08:21:46;93886.78;;;17.72;100.00
39739;BME280;25422;48.286;8.484;2022-09-09T08:24:12;93886.00;;;19.76;99.64
39739;BME280;25422;48.286;8.484;2022-09-09T08:26:45;93892.06;;;21.33;82.32
39739;BME280;25422;48.286;8.484;2022-09-09T08:29:13;93887.81;;;20.40;87.02
39739;BME280;25422;48.286;8.484;2022-09-09T08:31:42;93885.28;;;20.74;83.23
39739;BME280;25422;48.286;8.484;2022-09-09T08:34:08;93872.72;;;20.12;84.54
39739;BME280;25422;48.286;8.484;2022-09-09T08:36:44;93889.38;;;20.82;82.13
39739;BME280;25422;48.286;8.484;2022-09-09T08:39:13;93884.63;;;21.52;70.49
39739;BME280;25422;48.286;8.484;2022-09-09T08:47:32;93886.31;;;21.41;56.95
39739;BME280;25422;48.286;8.484;2022-09-09T08:50:28;93892.28;;;21.65;53.09
39739;BME280;25422;48.286;8.484;2022-09-09T08:58:09;93888.75;;;20.46;56.55
39739;BME280;25422;48.286;8.484;2022-09-09T09:00:49;93887.28;;;20.55;53.64
39739;BME280;25422;48.286;8.484;2022-09-09T09:06:26;93889.56;;;21.09;54.81
39739;BME280;25422;48.286;8.484;2022-09-09T09:09:11;93887.47;;;21.84;49.59
39739;BME280;25422;48.286;8.484;2022-09-09T09:11:48;93889.44;;;21.72;49.01
39739;BME280;25422;48.286;8.484;2022-09-09T09:14:20;93889.97;;;21.18;52.29
39739;BME280;25422;48.286;8.484;2022-09-09T09:16:53;93884.78;;;20.19;53.78
39739;BME280;25422;48.286;8.484;2022-09-09T09:19:20;93885.59;;;19.20;55.36
39739;BME280;25422;48.286;8.484;2022-09-09T09:27:13;93872.22;;;21.41;50.57
39739;BME280;25422;48.286;8.484;2022-09-09T09:29:43;93873.41;;;21.50;49.71
39739;BME280;25422;48.286;8.484;2022-09-09T09:32:16;93860.66;;;21.91;48.96
39739;BME280;25422;48.286;8.484;2022-09-09T09:34:52;93863.47;;;22.78;46.67
39739;BME280;25422;48.286;8.484;2022-09-09T09:37:34;93863.00;;;21.65;47.74
39739;BME280;25422;48.286;8.484;2022-09-09T09:40:11;93850.63;;;20.86;47.82
39739;BME280;25422;48.286;8.484;2022-09-09T09:42:47;93866.03;;;21.18;48.76
39739;BME280;25422;48.286;8.484;2022-09-09T09:45:28;93842.34;;;20.53;46.96
39739;BME280;25422;48.286;8.484;2022-09-09T09:48:09;93861.66;;;19.91;49.04
39739;BME280;25422;48.286;8.484;2022-09-09T09:55:57;93867.88;;;18.78;50.75
39739;BME280;25422;48.286;8.484;2022-09-09T09:58:23;93866.53;;;18.87;50.73
39739;BME280;25422;48.286;8.484;2022-09-09T10:00:52;93866.34;;;19.36;50.54
39739;BME280;25422;48.286;8.484;2022-09-09T10:03:31;93866.28;;;20.25;48.52
39739;BME280;25422;48.286;8.484;2022-09-09T10:06:00;93867.31;;;20.98;48.31
39739;BME280;25422;48.286;8.484;2022-09-09T10:08:27;93873.81;;;21.59;45.54
39739;BME280;25422;48.286;8.484;2022-09-09T10:10:56;93863.94;;;21.03;43.43
39739;BME280;25422;48.286;8.484;2022-09-09T10:13:46;93863.22;;;21.08;43.44
39739;BME280;25422;48.286;8.484;2022-09-09T10:19:32;93861.50;;;20.38;46.14
39739;BME280;25422;48.286;8.484;2022-09-09T10:30:17;93871.22;;;20.04;44.28
39739;BME280;25422;48.286;8.484;2022-09-09T10:33:01;93874.00;;;19.74;45.24
39739;BME280;25422;48.286;8.484;2022-09-09T10:43:47;93870.56;;;20.54;47.45
39739;BME280;25422;48.286;8.484;2022-09-09T10:46:27;93882.16;;;19.19;70.15
39739;BME280;25422;48.286;8.484;2022-09-09T10:49:13;93875.56;;;18.26;78.82
39739;BME280;25422;48.286;8.484;2022-09-09T10:59:55;93871.53;;;16.23;95.59
39739;BME280;25422;48.286;8.484;2022-09-09T11:02:29;93866.06;;;16.17;96.22
39739;BME280;25422;48.286;8.484;2022-09-09T11:07:37;93872.28;;;15.98;97.98
39739;BME280;25422;48.286;8.484;2022-09-09T11:10:21;93870.03;;;15.95;99.54
39739;BME280;25422;48.286;8.484;2022-09-09T11:12:50;93852.13;;;16.10;97.15
39739;BME280;25422;48.286;8.484;2022-09-09T11:15:23;93869.69;;;16.23;100.00
39739;BME280;25422;48.286;8.484;2022-09-09T11:17:56;93862.47;;;16.44;98.32
39739;BME280;25422;48.286;8.484;2022-09-09T11:20:23;93871.19;;;16.44;98.46
39739;BME280;25422;48.286;8.484;2022-09-09T11:22:58;93866.75;;;16.06;99.09
39739;BME280;25422;48.286;8.484;2022-09-09T11:25:35;93877.31;;;16.06;100.00
39739;BME280;25422;48.286;8.484;2022-09-09T11:33:23;93898.56;;;16.11;100.00
39739;BME280;25422;48.286;8.484;2022-09-09T11:35:56;93918.34;;;16.02;100.00
39739;BME280;25422;48.286;8.484;2022-09-09T11:38:26;93917.88;;;15.33;100.00
39739;BME280;25422;48.286;8.484;2022-09-09T11:41:07;93921.53;;;14.65;100.00
39739;BME280;25422;48.286;8.484;2022-09-09T11:43:43;93929.59;;;14.63;100.00
39739;BME280;25422;48.286;8.484;2022-09-09T11:46:12;93921.75;;;14.97;100.00
39739;BME280;25422;48.286;8.484;2022-09-09T11:48:40;93919.53;;;15.14;100.00
39739;BME280;25422;48.286;8.484;2022-09-09T11:53:57;93909.31;;;16.16;100.00
39739;BME280;25422;48.286;8.484;2022-09-09T11:56:32;93898.38;;;17.34;100.00
39739;BME280;25422;48.286;8.484;2022-09-09T11:59:17;93908.00;;;18.51;100.00
39739;BME280;25422;48.286;8.484;2022-09-09T12:01:45;93903.81;;;19.16;100.00
39739;BME280;25422;48.286;8.484;2022-09-09T12:07:03;93898.81;;;20.89;89.89
39739;BME280;25422;48.286;8.484;2022-09-09T12:09:54;93900.25;;;20.80;87.17
39739;BME280;25422;48.286;8.484;2022-09-09T12:12:35;93898.44;;;20.98;84.63
39739;BME280;25422;48.286;8.484;2022-09-09T12:17:41;93899.16;;;21.61;77.87
39739;BME280;25422;48.286;8.484;2022-09-09T12:20:14;93898.75;;;21.92;77.40
39739;BME280;25422;48.286;8.484;2022-09-09T12:28:08;93905.63;;;18.62;93.64
39739;BME280;25422;48.286;8.484;2022-09-09T12:33:43;93882.16;;;20.65;84.15
39739;BME280;25422;48.286;8.484;2022-09-09T12:36:16;93876.19;;;21.38;66.40
39739;BME280;25422;48.286;8.484;2022-09-09T12:38:45;93867.47;;;21.60;63.50
39739;BME280;25422;48.286;8.484;2022-09-09T12:41:27;93875.06;;;21.17;59.55
39739;BME280;25422;48.286;8.484;2022-09-09T12:44:08;93869.19;;;21.15;57.78
39739;BME280;25422;48.286;8.484;2022-09-09T12:46:40;93861.19;;;20.52;61.79
39739;BME280;25422;48.286;8.484;2022-09-09T12:49:36;93861.75;;;21.17;56.73
39739;BME280;25422;48.286;8.484;2022-09-09T12:52:14;93861.97;;;22.60;52.22
39739;BME280;25422;48.286;8.484;2022-09-09T12:54:44;93846.53;;;23.27;46.35
39739;BME280;25422;48.286;8.484;2022-09-09T12:57:12;93864.06;;;22.58;48.63
39739;BME280;25422;48.286;8.484;2022-09-09T12:59:41;93851.91;;;22.67;47.82
39739;BME280;25422;48.286;8.484;2022-09-09T13:02:25;93859.22;;;21.83;49.25
39739;BME280;25422;48.286;8.484;2022-09-09T13:04:51;93860.28;;;21.82;49.60
39739;BME280;25422;48.286;8.484;2022-09-09T13:07:19;93865.22;;;20.83;51.59
39739;BME280;25422;48.286;8.484;2022-09-09T13:09:46;93856.69;;;20.81;53.38
39739;BME280;25422;48.286;8.484;2022-09-09T13:12:18;93858.13;;;20.43;54.19
39739;BME280;25422;48.286;8.484;2022-09-09T13:14:47;93851.44;;;21.20;56.48
39739;BME280;25422;48.286;8.484;2022-09-09T13:20:49;93837.75;;;22.39;51.05
39739;BME280;25422;48.286;8.484;2022-09-09T13:23:18;93841.44;;;21.89;52.48
39739;BME280;25422;48.286;8.484;2022-09-09T13:25:59;93830.88;;;21.33;55.03
39739;BME280;25422;48.286;8.484;2022-09-09T13:28:28;93838.06;;;20.98;54.62
39739;BME280;25422;48.286;8.484;2022-09-09T13:31:02;93838.78;;;20.77;54.98
39739;BME280;25422;48.286;8.484;2022-09-09T13:33:33;93843.47;;;20.69;55.64
39739;BME280;25422;48.286;8.484;2022-09-09T13:36:07;93832.72;;;20.64;57.51
39739;BME280;25422;48.286;8.484;2022-09-09T13:38:37;93832.59;;;20.42;54.38
39739;BME280;25422;48.286;8.484;2022-09-09T13:41:06;93835.94;;;19.92;55.64
39739;BME280;25422;48.286;8.484;2022-09-09T13:46:05;93825.31;;;19.80;60.08
39739;BME280;25422;48.286;8.484;2022-09-09T13:48:31;93834.41;;;19.96;57.10
39739;BME280;25422;48.286;8.484;2022-09-09T13:51:04;93832.38;;;19.74;53.76
39739;BME280;25422;48.286;8.484;2022-09-09T13:53:32;93818.59;;;19.48;54.68
39739;BME280;25422;48.286;8.484;2022-09-09T13:55:58;93817.75;;;19.48;52.50
39739;BME280;25422;48.286;8.484;2022-09-09T13:58:25;93824.94;;;19.35;53.47
39739;BME280;25422;48.286;8.484;2022-09-09T14:00:52;93810.38;;;19.50;52.56
39739;BME280;25422;48.286;8.484;2022-09-09T14:03:19;93815.41;;;19.75;51.98
39739;BME280;25422;48.286;8.484;2022-09-09T14:05:45;93816.03;;;19.53;52.37
39739;BME280;25422;48.286;8.484;2022-09-09T14:08:22;93819.91;;;19.75;53.17
39739;BME280;25422;48.286;8.484;2022-09-09T14:10:48;93810.16;;;19.40;52.48
39739;BME280;25422;48.286;8.484;2022-09-09T14:13:14;93817.81;;;19.88;52.58
39739;BME280;25422;48.286;8.484;2022-09-09T14:15:40;93816.22;;;20.16;52.17
39739;BME280;25422;48.286;8.484;2022-09-09T14:18:05;93832.16;;;20.16;52.99
39739;BME280;25422;48.286;8.484;2022-09-09T14:20:30;93837.28;;;19.30;51.64
39739;BME280;25422;48.286;8.484;2022-09-09T14:22:57;93855.84;;;19.06;54.42
39739;BME280;25422;48.286;8.484;2022-09-09T14:25:23;93854.59;;;18.54;57.20
39739;BME280;25422;48.286;8.484;2022-09-09T14:27:48;93860.84;;;18.30;57.61
39739;BME280;25422;48.286;8.484;2022-09-09T14:30:16;93862.97;;;17.91;66.91
39739;BME280;25422;48.286;8.484;2022-09-09T14:32:41;93867.88;;;17.31;72.93
39739;BME280;25422;48.286;8.484;2022-09-09T14:35:07;93875.56;;;17.14;77.97
39739;BME280;25422;48.286;8.484;2022-09-09T14:37:33;93866.16;;;17.18;77.25
39739;BME280;25422;48.286;8.484;2022-09-09T14:39:58;93868.47;;;17.33;80.09
39739;BME280;25422;48.286;8.484;2022-09-09T14:42:24;93859.50;;;17.34;78.46
39739;BME280;25422;48.286;8.484;2022-09-09T14:44:49;93866.44;;;17.54;75.05
39739;BME280;25422;48.286;8.484;2022-09-09T14:47:15;93855.03;;;17.53;73.32
39739;BME280;25422;48.286;8.484;2022-09-09T14:49:40;93843.53;;;17.23;72.09
39739;BME280;25422;48.286;8.484;2022-09-09T14:52:06;93851.22;;;17.31;70.54
39739;BME280;25422;48.286;8.484;2022-09-09T14:54:32;93840.50;;;17.00;70.36
39739;BME280;25422;48.286;8.484;2022-09-09T14:56:58;93845.63;;;16.95;68.18
39739;BME280;25422;48.286;8.484;2022-09-09T14:59:24;93844.84;;;16.95;68.18
39739;BME280;25422;48.286;8.484;2022-09-09T15:01:50;93844.69;;;16.90;67.00
39739;BME280;25422;48.286;8.484;2022-09-09T15:04:15;93850.59;;;17.10;68.53
39739;BME280;25422;48.286;8.484;2022-09-09T15:06:42;93849.28;;;17.19;64.31
39739;BME280;25422;48.286;8.484;2022-09-09T15:09:09;93842.75;;;17.22;64.98
39739;BME280;25422;48.286;8.484;2022-09-09T15:11:36;93853.22;;;17.54;64.87
39739;BME280;25422;48.286;8.484;2022-09-09T15:14:07;93848.56;;;17.86;65.18
39739;BME280;25422;48.286;8.484;2022-09-09T15:16:33;93854.59;;;17.94;64.55
39739;BME280;25422;48.286;8.484;2022-09-09T15:19:00;93851.88;;;18.00;65.49
39739;BME280;25422;48.286;8.484;2022-09-09T15:21:28;93858.28;;;17.93;62.45
39739;BME280;25422;48.286;8.484;2022-09-09T15:23:55;93853.63;;;17.69;62.02
39739;BME280;25422;48.286;8.484;2022-09-09T15:26:21;93857.69;;;17.35;63.35
39739;BME280;25422;48.286;8.484;2022-09-09T15:28:48;93851.38;;;17.55;64.70